createdAt,value
2019-03-28T00:01:25.371Z,22.60
2019-03-28T00:03:53.336Z,23.30
2019-03-28T00:06:21.302Z,22.13
2019-03-28T00:08:49.289Z,25.02
2019-03-28T00:11:17.247Z,23.80
2019-03-28T00:13:45.234Z,22.02
2019-03-28T00:16:13.208Z,21.50
2019-03-28T00:18:41.188Z,21.73
2019-03-28T00:21:09.188Z,21.48
2019-03-28T00:23:38.808Z,23.70
2019-03-28T00:26:06.783Z,20.65
2019-03-28T00:28:34.765Z,21.33
2019-03-28T00:31:02.738Z,18.70
2019-03-28T00:33:30.712Z,17.77
2019-03-28T00:35:58.683Z,17.37
2019-03-28T00:38:26.664Z,18.45
2019-03-28T00:40:55.159Z,18.35
2019-03-28T00:43:23.288Z,20.65
2019-03-28T00:45:51.263Z,18.02
2019-03-28T00:48:19.250Z,18.77
2019-03-28T00:50:47.231Z,17.17
2019-03-28T00:53:15.186Z,16.70
2019-03-28T00:55:43.169Z,17.20
2019-03-28T00:58:11.126Z,18.12
2019-03-28T01:00:39.109Z,20.65
2019-03-28T01:03:07.066Z,20.97
2019-03-28T01:05:35.039Z,21.55
2019-03-28T01:08:03.019Z,18.30
2019-03-28T01:10:30.987Z,17.27
2019-03-28T01:12:58.964Z,21.20
2019-03-28T01:15:26.932Z,19.00
2019-03-28T01:17:55.183Z,21.68
2019-03-28T01:20:23.251Z,21.10
2019-03-28T01:22:51.233Z,23.62
2019-03-28T01:25:19.199Z,26.95
2019-03-28T01:27:47.177Z,26.50
2019-03-28T01:30:16.787Z,27.90
2019-03-28T01:32:44.768Z,27.02
2019-03-28T01:35:12.743Z,25.00
2019-03-28T01:37:40.713Z,24.95
2019-03-28T01:40:08.679Z,22.10
2019-03-28T01:42:36.671Z,23.92
2019-03-28T01:45:05.714Z,22.50
2019-03-28T01:47:33.684Z,21.82
2019-03-28T01:50:01.661Z,21.65
2019-03-28T01:52:29.620Z,19.57
2019-03-28T01:54:57.605Z,16.77
2019-03-28T01:57:25.572Z,16.85
2019-03-28T01:59:53.547Z,17.25
2019-03-28T02:02:21.535Z,15.35
2019-03-28T02:04:49.495Z,15.15
2019-03-28T02:07:17.497Z,17.45
2019-03-28T02:09:45.473Z,24.12
2019-03-28T02:12:13.451Z,18.62
2019-03-28T02:14:41.428Z,22.65
2019-03-28T02:17:09.438Z,26.20
2019-03-28T02:19:37.403Z,23.42
2019-03-28T02:22:05.423Z,22.17
2019-03-28T02:24:33.405Z,28.70
2019-03-28T02:27:01.393Z,25.12
2019-03-28T02:29:29.347Z,24.25
2019-03-28T02:31:57.326Z,24.45
2019-03-28T02:34:25.300Z,25.85
2019-03-28T02:36:53.264Z,24.92
2019-03-28T02:39:21.240Z,27.50
2019-03-28T02:41:49.212Z,24.72
2019-03-28T02:44:17.231Z,20.02
2019-03-28T02:46:45.199Z,18.87
2019-03-28T02:49:13.180Z,19.27
2019-03-28T02:51:41.150Z,21.37
2019-03-28T02:54:09.124Z,20.85
2019-03-28T02:56:37.100Z,22.05
2019-03-28T02:59:05.087Z,20.82
2019-03-28T03:01:33.041Z,22.25
2019-03-28T03:04:01.008Z,21.73
2019-03-28T03:06:29.008Z,22.37
2019-03-28T03:08:56.973Z,23.05
2019-03-28T03:11:24.947Z,19.67
2019-03-28T03:13:52.911Z,16.65
2019-03-28T03:16:20.905Z,16.75
2019-03-28T03:18:48.883Z,15.35
2019-03-28T03:21:16.850Z,15.78
2019-03-28T03:23:44.833Z,13.70
2019-03-28T03:26:12.820Z,14.07
2019-03-28T03:28:40.797Z,14.23
2019-03-28T03:31:08.774Z,15.48
2019-03-28T03:33:37.706Z,14.28
2019-03-28T03:36:05.963Z,16.90
2019-03-28T03:38:33.965Z,13.95
2019-03-28T03:41:01.932Z,13.22
2019-03-28T03:43:29.917Z,14.03
2019-03-28T03:45:57.893Z,14.00
2019-03-28T03:48:25.868Z,14.40
2019-03-28T03:50:53.849Z,13.75
2019-03-28T03:53:21.824Z,14.13
2019-03-28T03:55:49.797Z,14.23
2019-03-28T03:58:18.617Z,15.38
2019-03-28T04:00:47.156Z,15.45
2019-03-28T04:03:15.112Z,14.87
2019-03-28T04:05:43.081Z,15.08
2019-03-28T04:08:11.544Z,15.30
2019-03-28T04:10:39.508Z,15.00
2019-03-28T04:13:07.497Z,15.50
2019-03-28T04:15:35.484Z,15.98
2019-03-28T04:18:03.452Z,15.08
2019-03-28T04:20:31.432Z,15.95
2019-03-28T04:22:59.439Z,15.43
2019-03-28T04:25:27.472Z,15.05
2019-03-28T04:27:55.443Z,14.50
2019-03-28T04:30:23.420Z,14.60
2019-03-28T04:32:51.409Z,14.40
2019-03-28T04:35:19.389Z,14.18
2019-03-28T04:37:47.428Z,14.05
2019-03-28T04:40:15.413Z,15.28
2019-03-28T04:42:45.862Z,14.90
2019-03-28T04:45:13.076Z,15.08
2019-03-28T04:47:41.047Z,14.55
2019-03-28T04:50:09.024Z,13.65
2019-03-28T04:52:37.067Z,15.10
2019-03-28T04:55:05.703Z,14.93
2019-03-28T04:57:33.672Z,16.50
2019-03-28T05:00:01.655Z,16.97
2019-03-28T05:02:29.620Z,19.15
2019-03-28T05:05:19.349Z,17.45
2019-03-28T05:07:47.317Z,17.15
2019-03-28T05:10:15.441Z,17.23
2019-03-28T05:12:43.640Z,16.85
2019-03-28T05:15:11.608Z,17.77
2019-03-28T05:17:40.435Z,24.90
2019-03-28T05:20:08.739Z,23.27
2019-03-28T05:22:36.720Z,24.00
2019-03-28T05:25:05.098Z,27.90
2019-03-28T05:27:33.520Z,28.95
2019-03-28T05:30:01.728Z,30.97
2019-03-28T05:32:29.684Z,33.63
2019-03-28T05:34:57.655Z,35.70
2019-03-28T05:37:25.620Z,34.80
2019-03-28T05:39:53.597Z,33.60
2019-03-28T05:42:21.649Z,29.57
2019-03-28T05:44:49.675Z,23.02
2019-03-28T05:47:17.662Z,21.27
2019-03-28T05:49:45.634Z,22.95
2019-03-28T05:52:13.608Z,22.15
2019-03-28T05:54:41.575Z,24.07
2019-03-28T05:57:09.575Z,23.73
2019-03-28T05:59:37.548Z,25.32
2019-03-28T06:02:05.511Z,26.17
2019-03-28T06:04:34.350Z,24.80
2019-03-28T06:07:02.570Z,25.65
2019-03-28T06:09:30.693Z,24.70
2019-03-28T06:11:58.665Z,25.37
2019-03-28T06:14:26.649Z,26.02
2019-03-28T06:16:54.694Z,24.90
2019-03-28T06:19:22.655Z,25.88
2019-03-28T06:21:50.633Z,27.00
2019-03-28T06:24:18.621Z,28.65
2019-03-28T06:26:46.595Z,29.92
2019-03-28T06:29:23.747Z,27.45
2019-03-28T06:31:54.531Z,28.47
2019-03-28T06:34:13.996Z,27.52
2019-03-28T06:36:41.977Z,27.87
2019-03-28T06:39:10.129Z,28.15
2019-03-28T06:41:38.107Z,27.22
2019-03-28T06:44:06.065Z,27.48
2019-03-28T06:46:34.060Z,27.13
2019-03-28T06:49:02.109Z,27.52
2019-03-28T06:51:30.095Z,26.73
2019-03-28T06:53:58.071Z,25.60
2019-03-28T06:56:26.043Z,24.63
2019-03-28T06:58:54.039Z,26.42
2019-03-28T07:01:22.015Z,26.02
2019-03-28T07:03:49.980Z,26.27
2019-03-28T07:06:17.963Z,25.50
2019-03-28T07:08:45.932Z,25.25
2019-03-28T07:11:13.911Z,25.57
2019-03-28T07:13:41.887Z,26.35
2019-03-28T07:16:09.859Z,26.23
2019-03-28T07:18:37.853Z,25.15
2019-03-28T07:21:05.823Z,26.52
2019-03-28T07:23:33.816Z,27.13
2019-03-28T07:26:01.780Z,26.42
2019-03-28T07:28:29.753Z,26.25
2019-03-28T07:30:57.763Z,27.65
2019-03-28T07:33:25.744Z,27.00
2019-03-28T07:35:53.763Z,27.98
2019-03-28T07:38:21.736Z,27.98
2019-03-28T07:40:49.716Z,28.30
2019-03-28T07:43:17.688Z,27.98
2019-03-28T07:45:45.693Z,27.13
2019-03-28T07:48:13.640Z,26.82
2019-03-28T07:50:42.699Z,26.27
2019-03-28T07:53:10.820Z,26.00
2019-03-28T07:55:38.773Z,25.52
2019-03-28T07:58:07.675Z,24.05
2019-03-28T08:00:35.832Z,23.42
2019-03-28T08:03:03.835Z,24.07
2019-03-28T08:05:31.819Z,24.55
2019-03-28T08:07:59.799Z,24.40
2019-03-28T08:10:27.768Z,23.83
2019-03-28T08:12:55.835Z,21.97
2019-03-28T08:15:23.811Z,20.77
2019-03-28T08:17:51.775Z,22.32
2019-03-28T08:20:19.755Z,21.45
2019-03-28T08:22:47.720Z,20.62
2019-03-28T08:25:15.713Z,20.80
2019-03-28T08:27:43.697Z,22.07
2019-03-28T08:30:18.268Z,21.12
2019-03-28T08:32:41.360Z,21.30
2019-03-28T08:35:10.410Z,19.48
2019-03-28T08:37:38.599Z,18.07
2019-03-28T08:40:07.234Z,17.85
2019-03-28T08:42:35.206Z,17.82
2019-03-28T08:45:04.459Z,16.48
2019-03-28T08:47:32.439Z,17.82
2019-03-28T08:50:00.453Z,17.45
2019-03-28T08:52:28.561Z,16.40
2019-03-28T08:54:56.540Z,15.28
2019-03-28T08:57:24.511Z,15.63
2019-03-28T08:59:52.495Z,15.28
2019-03-28T09:02:20.482Z,16.05
2019-03-28T09:04:48.467Z,15.28
2019-03-28T09:07:17.568Z,14.68
2019-03-28T09:09:45.679Z,13.83
2019-03-28T09:12:13.666Z,14.45
2019-03-28T09:14:41.624Z,14.83
2019-03-28T09:17:09.656Z,13.85
2019-03-28T09:19:39.161Z,14.38
2019-03-28T09:22:07.438Z,14.33
2019-03-28T09:24:35.430Z,13.32
2019-03-28T09:27:03.371Z,14.05
2019-03-28T09:29:31.355Z,13.70
2019-03-28T09:31:59.324Z,13.68
2019-03-28T09:34:27.316Z,13.38
2019-03-28T09:36:55.268Z,11.33
2019-03-28T09:39:24.919Z,11.70
2019-03-28T09:41:52.955Z,12.25
2019-03-28T09:44:20.921Z,10.80
2019-03-28T09:46:48.896Z,9.33
2019-03-28T09:49:16.868Z,7.20
2019-03-28T09:51:44.833Z,9.88
2019-03-28T09:54:12.812Z,8.48
2019-03-28T09:56:40.773Z,8.68
2019-03-28T09:59:09.022Z,7.47
2019-03-28T10:01:36.983Z,8.00
2019-03-28T10:04:06.491Z,7.67
2019-03-28T10:06:34.806Z,6.80
2019-03-28T10:09:03.932Z,7.67
2019-03-28T10:11:31.907Z,7.40
2019-03-28T10:13:59.872Z,7.08
2019-03-28T10:16:27.946Z,8.75
2019-03-28T10:18:55.903Z,5.87
2019-03-28T10:21:23.949Z,6.67
2019-03-28T10:23:51.940Z,7.80
2019-03-28T10:26:19.994Z,8.40
2019-03-28T10:28:47.976Z,7.62
2019-03-28T10:31:17.014Z,8.73
2019-03-28T10:33:45.316Z,9.60
2019-03-28T10:36:13.255Z,7.92
2019-03-28T10:38:41.216Z,7.35
2019-03-28T10:41:09.198Z,7.55
2019-03-28T10:43:37.168Z,6.85
2019-03-28T10:46:06.154Z,6.33
2019-03-28T10:48:34.126Z,6.22
2019-03-28T10:51:02.122Z,5.35
2019-03-28T10:53:30.389Z,4.97
2019-03-28T10:55:58.498Z,5.28
2019-03-28T10:58:26.577Z,4.60
2019-03-28T11:00:54.888Z,3.77
2019-03-28T11:03:23.528Z,2.30
2019-03-28T11:05:51.527Z,3.50
2019-03-28T11:08:19.511Z,3.95
2019-03-28T11:10:47.484Z,4.22
2019-03-28T11:13:15.497Z,3.92
2019-03-28T11:15:43.465Z,3.72
2019-03-28T11:18:11.419Z,3.67
2019-03-28T11:20:40.122Z,4.47
2019-03-28T11:23:08.335Z,4.87
2019-03-28T11:25:36.342Z,4.03
2019-03-28T11:28:04.295Z,3.30
2019-03-28T11:30:32.550Z,3.47
2019-03-28T11:33:00.742Z,4.15
2019-03-28T11:35:28.763Z,3.95
2019-03-28T11:37:56.999Z,4.30
2019-03-28T11:40:24.916Z,4.15
2019-03-28T11:42:53.277Z,3.98
2019-03-28T11:45:21.961Z,4.15
2019-03-28T11:47:49.933Z,4.35
2019-03-28T11:50:17.917Z,3.75
2019-03-28T11:52:45.913Z,3.20
2019-03-28T11:55:13.865Z,3.37
2019-03-28T11:57:41.875Z,3.25
2019-03-28T12:00:11.508Z,3.17
2019-03-28T12:02:39.475Z,5.15
2019-03-28T12:05:07.453Z,4.50
2019-03-28T12:07:35.424Z,5.40
2019-03-28T12:10:05.000Z,4.70
2019-03-28T12:12:32.984Z,4.70
2019-03-28T12:15:00.958Z,4.80
2019-03-28T12:17:28.936Z,5.00
2019-03-28T12:19:56.934Z,4.80
2019-03-28T12:22:24.895Z,4.78
2019-03-28T12:24:52.869Z,5.47
2019-03-28T12:27:20.843Z,5.50
2019-03-28T12:29:50.439Z,5.20
2019-03-28T12:32:18.418Z,5.10
2019-03-28T12:34:46.379Z,5.65
2019-03-28T12:37:14.387Z,5.33
2019-03-28T12:39:42.363Z,5.80
2019-03-28T12:42:10.348Z,5.47
2019-03-28T12:44:38.326Z,5.45
2019-03-28T12:47:06.300Z,5.87
2019-03-28T12:49:34.262Z,5.62
2019-03-28T12:52:02.238Z,5.47
2019-03-28T12:54:30.208Z,6.15
2019-03-28T12:56:58.370Z,5.47
2019-03-28T12:59:26.442Z,4.78
2019-03-28T13:01:55.235Z,5.42
2019-03-28T13:04:23.457Z,6.20
2019-03-28T13:06:51.420Z,6.03
2019-03-28T13:09:19.422Z,5.83
2019-03-28T13:11:47.397Z,6.28
2019-03-28T13:14:15.340Z,4.92
2019-03-28T13:16:44.972Z,4.75
2019-03-28T13:19:12.968Z,5.53
2019-03-28T13:21:40.952Z,5.45
2019-03-28T13:24:08.907Z,5.60
2019-03-28T13:26:36.873Z,5.55
2019-03-28T13:29:04.949Z,6.22
2019-03-28T13:31:33.010Z,5.20
2019-03-28T13:34:01.468Z,6.33
2019-03-28T13:36:29.628Z,5.35
2019-03-28T13:38:57.607Z,6.08
2019-03-28T13:41:25.591Z,5.58
2019-03-28T13:43:53.555Z,5.80
2019-03-28T13:46:21.515Z,4.90
2019-03-28T13:48:49.500Z,4.95
2019-03-28T13:51:17.464Z,5.33
2019-03-28T13:53:45.452Z,5.53
2019-03-28T13:56:14.055Z,5.30
2019-03-28T13:58:41.995Z,5.60
2019-03-28T14:01:09.977Z,6.12
2019-03-28T14:03:37.939Z,6.42
2019-03-28T14:06:05.969Z,6.08
2019-03-28T14:08:33.971Z,5.37
2019-03-28T14:11:01.945Z,5.30
2019-03-28T14:13:29.982Z,5.45
2019-03-28T14:15:58.269Z,4.70
2019-03-28T14:18:26.440Z,5.53
2019-03-28T14:20:54.729Z,6.45
2019-03-28T14:23:23.399Z,6.22
2019-03-28T14:25:51.424Z,5.83
2019-03-28T14:28:19.421Z,6.05
2019-03-28T14:30:47.395Z,6.20
2019-03-28T14:33:16.022Z,5.50
2019-03-28T14:35:44.185Z,6.00
2019-03-28T14:38:12.131Z,5.37
2019-03-28T14:40:40.112Z,5.90
2019-03-28T14:43:10.713Z,5.42
2019-03-28T14:45:38.780Z,5.70
2019-03-28T14:48:07.104Z,5.78
2019-03-28T14:50:35.977Z,5.87
2019-03-28T14:53:04.348Z,5.65
2019-03-28T14:55:32.355Z,5.87
2019-03-28T14:58:21.957Z,5.10
2019-03-28T15:00:50.523Z,6.70
2019-03-28T15:03:27.259Z,6.03
2019-03-28T15:05:48.283Z,6.15
2019-03-28T15:08:16.323Z,5.50
2019-03-28T15:10:44.499Z,5.60
2019-03-28T15:13:12.479Z,4.90
2019-03-28T15:15:40.540Z,6.42
2019-03-28T15:18:08.547Z,5.75
2019-03-28T15:20:55.969Z,5.97
2019-03-28T15:23:24.024Z,6.28
2019-03-28T15:25:52.594Z,5.85
2019-03-28T15:28:20.576Z,6.00
2019-03-28T15:30:51.321Z,6.72
2019-03-28T15:33:19.299Z,6.40
2019-03-28T15:35:47.265Z,6.28
2019-03-28T15:38:15.219Z,7.08
2019-03-28T15:40:43.224Z,7.00
2019-03-28T15:43:11.189Z,6.92
2019-03-28T15:45:39.197Z,6.72
2019-03-28T15:48:08.128Z,6.35
2019-03-28T15:50:36.176Z,6.70
2019-03-28T15:53:05.543Z,6.55
2019-03-28T15:55:33.809Z,6.30
2019-03-28T15:58:01.828Z,6.90
2019-03-28T16:00:29.879Z,6.55
2019-03-28T16:02:57.844Z,6.45
2019-03-28T16:05:25.832Z,6.15
2019-03-28T16:07:53.797Z,7.35
2019-03-28T16:10:21.756Z,7.37
2019-03-28T16:12:49.748Z,6.75
2019-03-28T16:15:17.728Z,7.72
2019-03-28T16:17:45.698Z,8.03
2019-03-28T16:20:13.740Z,7.95
2019-03-28T16:22:41.715Z,8.18
2019-03-28T16:25:09.683Z,8.45
2019-03-28T16:27:37.674Z,9.28
2019-03-28T16:30:06.803Z,9.48
2019-03-28T16:32:34.767Z,10.38
2019-03-28T16:35:03.420Z,10.23
2019-03-28T16:37:31.392Z,10.30
2019-03-28T16:39:59.368Z,9.83
2019-03-28T16:42:27.331Z,9.10
2019-03-28T16:44:55.570Z,9.78
2019-03-28T16:47:23.554Z,9.78
2019-03-28T16:49:51.523Z,9.85
2019-03-28T16:52:19.484Z,10.05
2019-03-28T16:54:47.469Z,9.48
2019-03-28T16:57:15.428Z,8.43
2019-03-28T16:59:43.467Z,9.23
2019-03-28T17:02:11.427Z,8.75
2019-03-28T17:04:39.413Z,9.05
2019-03-28T17:07:07.444Z,8.23
2019-03-28T17:09:37.566Z,8.80
2019-03-28T17:12:05.122Z,8.57
2019-03-28T17:14:33.081Z,8.28
2019-03-28T17:17:01.035Z,7.97
2019-03-28T17:19:29.084Z,8.13
2019-03-28T17:21:57.067Z,7.62
2019-03-28T17:24:25.038Z,7.90
2019-03-28T17:26:53.038Z,8.28
2019-03-28T17:29:20.994Z,7.72
2019-03-28T17:31:48.963Z,6.40
2019-03-28T17:34:16.931Z,6.97
2019-03-28T17:36:44.908Z,7.42
2019-03-28T17:39:12.996Z,6.20
2019-03-28T17:41:40.947Z,5.62
2019-03-28T17:44:08.932Z,5.47
2019-03-28T17:46:36.915Z,5.65
2019-03-28T17:49:04.888Z,7.37
2019-03-28T17:51:32.847Z,5.45
2019-03-28T17:54:00.824Z,5.70
2019-03-28T17:56:28.900Z,4.87
2019-03-28T17:58:57.582Z,5.47
2019-03-28T18:01:25.766Z,5.20
2019-03-28T18:03:53.755Z,5.50
2019-03-28T18:06:21.744Z,5.47
2019-03-28T18:08:49.719Z,4.95
2019-03-28T18:11:17.680Z,4.90
2019-03-28T18:13:45.664Z,4.97
2019-03-28T18:16:13.631Z,4.72
2019-03-28T18:18:41.611Z,4.35
2019-03-28T18:21:09.591Z,4.87
2019-03-28T18:23:37.570Z,5.75
2019-03-28T18:26:05.544Z,5.05
2019-03-28T18:28:33.562Z,5.47
2019-03-28T18:31:01.538Z,4.90
2019-03-28T18:33:29.496Z,5.25
2019-03-28T18:35:57.489Z,4.60
2019-03-28T18:38:25.440Z,5.60
2019-03-28T18:40:53.419Z,5.90
2019-03-28T18:43:21.388Z,5.70
2019-03-28T18:45:49.557Z,5.33
2019-03-28T18:48:28.226Z,5.00
2019-03-28T18:50:47.171Z,6.17
2019-03-28T18:53:15.145Z,6.10
2019-03-28T18:55:43.124Z,6.35
2019-03-28T18:58:11.104Z,7.35
2019-03-28T19:00:39.093Z,9.43
2019-03-28T19:03:07.067Z,9.13
2019-03-28T19:15:21.087Z,1.90
2019-03-28T19:17:49.104Z,1.40
2019-03-28T19:22:29.803Z,1.20
2019-03-28T19:24:58.047Z,1.10
2019-03-28T19:37:24.561Z,4.50
2019-03-28T19:39:52.937Z,5.50
2019-03-28T19:42:22.569Z,5.30
2019-03-28T19:44:51.027Z,5.12
2019-03-28T19:47:19.361Z,5.45
2019-03-28T19:49:47.561Z,5.08
2019-03-28T19:52:15.862Z,6.20
2019-03-28T19:54:44.067Z,5.80
2019-03-28T19:57:12.992Z,6.50
2019-03-28T19:59:41.473Z,6.00
2019-03-28T20:02:09.704Z,6.22
2019-03-28T20:04:37.922Z,6.72
2019-03-28T20:07:06.140Z,7.08
2019-03-28T20:09:34.345Z,6.10
2019-03-28T20:12:03.504Z,5.92
2019-03-28T20:14:32.039Z,6.55
2019-03-28T20:17:00.259Z,6.37
2019-03-28T20:19:29.096Z,6.70
2019-03-28T20:21:59.564Z,6.20
2019-03-28T20:24:27.487Z,6.65
2019-03-28T20:26:56.247Z,6.20
2019-03-28T20:29:24.612Z,6.50
2019-03-28T20:31:52.817Z,6.42
2019-03-28T20:34:21.041Z,6.22
2019-03-28T20:36:52.576Z,6.50
2019-03-28T20:39:19.308Z,6.20
2019-03-28T20:41:47.589Z,6.25
2019-03-28T20:44:15.845Z,6.95
2019-03-28T20:46:44.081Z,8.00
2019-03-28T20:49:12.310Z,7.40
2019-03-28T20:51:40.501Z,8.80
2019-03-28T20:54:08.710Z,9.30
2019-03-28T20:56:36.911Z,7.62
2019-03-28T20:59:05.115Z,7.62
2019-03-28T21:01:33.352Z,7.35
2019-03-28T21:04:01.545Z,6.83
2019-03-28T21:06:29.770Z,7.30
2019-03-28T21:08:58.001Z,7.55
2019-03-28T21:11:29.351Z,8.83
2019-03-28T21:13:56.466Z,8.55
2019-03-28T21:16:24.713Z,7.65
2019-03-28T21:18:53.089Z,8.33
2019-03-28T21:21:21.423Z,8.13
2019-03-28T21:23:49.645Z,8.40
2019-03-28T21:26:17.845Z,8.85
2019-03-28T21:28:47.564Z,8.13
2019-03-28T21:31:16.160Z,9.00
2019-03-28T21:33:44.409Z,8.70
2019-03-28T21:36:12.641Z,8.68
2019-03-28T21:38:40.857Z,7.65
2019-03-28T21:41:09.144Z,9.08
2019-03-28T21:43:37.384Z,8.40
2019-03-28T21:46:06.223Z,9.50
2019-03-28T21:48:35.329Z,8.60
2019-03-28T21:51:03.573Z,8.80
2019-03-28T21:53:33.041Z,7.92
2019-03-28T21:56:01.456Z,9.23
2019-03-28T21:58:30.635Z,9.15
2019-03-28T22:00:58.976Z,9.43
2019-03-28T22:03:27.184Z,9.30
2019-03-28T22:05:55.414Z,8.43
2019-03-28T22:08:23.612Z,9.25
2019-03-28T22:10:51.855Z,9.33
2019-03-28T22:13:20.069Z,9.35
2019-03-28T22:15:48.310Z,10.70
2019-03-28T22:18:16.588Z,9.75
2019-03-28T22:20:44.784Z,11.85
2019-03-28T22:23:13.854Z,11.85
2019-03-28T22:25:42.178Z,11.95
2019-03-28T22:28:10.418Z,11.12
2019-03-28T22:30:39.049Z,10.35
2019-03-28T22:33:07.491Z,10.13
2019-03-28T22:35:35.694Z,10.53
2019-03-28T22:38:03.978Z,11.00
2019-03-28T22:40:32.227Z,11.85
2019-03-28T22:43:00.468Z,12.98
2019-03-28T22:45:28.978Z,10.43
2019-03-28T22:48:10.143Z,10.03
2019-03-28T22:50:27.190Z,11.83
2019-03-28T22:52:55.444Z,11.63
2019-03-28T22:55:23.672Z,11.03
2019-03-28T22:57:54.001Z,10.50
2019-03-28T23:00:23.496Z,10.88
2019-03-28T23:02:51.713Z,11.22
2019-03-28T23:05:19.922Z,11.20
2019-03-28T23:07:48.171Z,11.53
2019-03-28T23:10:17.034Z,11.38
2019-03-28T23:12:46.357Z,11.28
2019-03-28T23:15:14.809Z,12.33
2019-03-28T23:17:42.972Z,13.45
2019-03-28T23:20:11.263Z,13.65
2019-03-28T23:22:39.488Z,12.95
2019-03-28T23:25:10.948Z,12.47
2019-03-28T23:27:39.429Z,12.45
2019-03-28T23:30:08.235Z,12.20
2019-03-28T23:32:36.448Z,13.03
2019-03-28T23:35:05.135Z,13.03
2019-03-28T23:37:33.348Z,12.73
2019-03-28T23:40:01.559Z,11.83
2019-03-28T23:42:29.790Z,12.90
2019-03-28T23:44:58.005Z,11.63
2019-03-28T23:47:26.292Z,10.63
2019-03-28T23:49:54.496Z,11.38
2019-03-28T23:52:22.700Z,11.65
2019-03-28T23:54:50.963Z,11.20
2019-03-28T23:57:19.156Z,12.18
2019-03-28T23:59:47.376Z,11.50
